sensor_id;sensor_type;location;lat;lon;timestamp;P1;durP1;ratioP1;P2;durP2;ratioP2
36321;SDS011;23564;48.290;11.460;2022-08-19T00:01:49;11.48;;;6.40;;
36321;SDS011;23564;48.290;11.460;2022-08-19T00:04:17;10.02;;;5.38;;
36321;SDS011;23564;48.290;11.460;2022-08-19T00:06:45;10.18;;;6.20;;
36321;SDS011;23564;48.290;11.460;2022-08-19T00:09:13;9.45;;;6.38;;
36321;SDS011;23564;48.290;11.460;2022-08-19T00:11:40;9.85;;;6.60;;
36321;SDS011;23564;48.290;11.460;2022-08-19T00:14:07;9.95;;;6.28;;
36321;SDS011;23564;48.290;11.460;2022-08-19T00:16:34;7.57;;;5.88;;
36321;SDS011;23564;48.290;11.460;2022-08-19T00:19:03;8.55;;;6.50;;
36321;SDS011;23564;48.290;11.460;2022-08-19T00:21:29;10.77;;;6.20;;
36321;SDS011;23564;48.290;11.460;2022-08-19T00:23:55;9.18;;;6.55;;
36321;SDS011;23564;48.290;11.460;2022-08-19T00:26:25;11.07;;;6.35;;
36321;SDS011;23564;48.290;11.460;2022-08-19T00:28:52;8.57;;;5.95;;
36321;SDS011;23564;48.290;11.460;2022-08-19T00:31:18;9.10;;;6.47;;
36321;SDS011;23564;48.290;11.460;2022-08-19T00:33:43;7.68;;;5.50;;
36321;SDS011;23564;48.290;11.460;2022-08-19T00:36:09;7.63;;;5.53;;
36321;SDS011;23564;48.290;11.460;2022-08-19T00:38:36;9.07;;;5.47;;
36321;SDS011;23564;48.290;11.460;2022-08-19T00:41:06;10.00;;;5.63;;
36321;SDS011;23564;48.290;11.460;2022-08-19T00:43:32;9.90;;;5.35;;
36321;SDS011;23564;48.290;11.460;2022-08-19T00:45:58;7.88;;;6.00;;
36321;SDS011;23564;48.290;11.460;2022-08-19T00:48:24;7.65;;;5.97;;
36321;SDS011;23564;48.290;11.460;2022-08-19T00:50:50;7.40;;;5.88;;
36321;SDS011;23564;48.290;11.460;2022-08-19T00:53:19;9.00;;;6.22;;
36321;SDS011;23564;48.290;11.460;2022-08-19T00:55:48;7.90;;;5.72;;
36321;SDS011;23564;48.290;11.460;2022-08-19T00:58:17;8.45;;;6.30;;
36321;SDS011;23564;48.290;11.460;2022-08-19T01:00:45;7.88;;;6.30;;
36321;SDS011;23564;48.290;11.460;2022-08-19T01:03:12;8.85;;;6.20;;
36321;SDS011;23564;48.290;11.460;2022-08-19T01:05:42;8.15;;;6.60;;
36321;SDS011;23564;48.290;11.460;2022-08-19T01:08:09;9.70;;;7.45;;
36321;SDS011;23564;48.290;11.460;2022-08-19T01:10:39;10.90;;;6.28;;
36321;SDS011;23564;48.290;11.460;2022-08-19T01:13:08;8.60;;;6.75;;
36321;SDS011;23564;48.290;11.460;2022-08-19T01:15:38;8.85;;;6.85;;
36321;SDS011;23564;48.290;11.460;2022-08-19T01:18:09;9.45;;;6.80;;
36321;SDS011;23564;48.290;11.460;2022-08-19T01:20:37;7.85;;;6.38;;
36321;SDS011;23564;48.290;11.460;2022-08-19T01:23:03;8.25;;;6.47;;
36321;SDS011;23564;48.290;11.460;2022-08-19T01:25:32;7.40;;;5.85;;
36321;SDS011;23564;48.290;11.460;2022-08-19T01:28:06;7.68;;;5.68;;
36321;SDS011;23564;48.290;11.460;2022-08-19T01:30:33;9.63;;;6.43;;
36321;SDS011;23564;48.290;11.460;2022-08-19T01:33:00;12.18;;;7.07;;
36321;SDS011;23564;48.290;11.460;2022-08-19T01:35:30;10.77;;;6.75;;
36321;SDS011;23564;48.290;11.460;2022-08-19T01:37:59;9.82;;;6.18;;
36321;SDS011;23564;48.290;11.460;2022-08-19T01:40:28;9.75;;;6.43;;
36321;SDS011;23564;48.290;11.460;2022-08-19T01:42:56;10.20;;;6.80;;
36321;SDS011;23564;48.290;11.460;2022-08-19T01:45:22;13.25;;;7.45;;
36321;SDS011;23564;48.290;11.460;2022-08-19T01:47:49;9.63;;;6.68;;
36321;SDS011;23564;48.290;11.460;2022-08-19T01:50:15;9.15;;;6.43;;
36321;SDS011;23564;48.290;11.460;2022-08-19T01:52:42;8.27;;;6.68;;
36321;SDS011;23564;48.290;11.460;2022-08-19T01:55:10;11.13;;;7.70;;
36321;SDS011;23564;48.290;11.460;2022-08-19T01:57:38;10.60;;;7.30;;
36321;SDS011;23564;48.290;11.460;2022-08-19T02:00:07;10.35;;;7.68;;
36321;SDS011;23564;48.290;11.460;2022-08-19T02:02:35;12.30;;;7.35;;
36321;SDS011;23564;48.290;11.460;2022-08-19T02:05:00;10.30;;;7.47;;
36321;SDS011;23564;48.290;11.460;2022-08-19T02:07:26;11.63;;;8.95;;
36321;SDS011;23564;48.290;11.460;2022-08-19T02:09:53;11.98;;;8.75;;
36321;SDS011;23564;48.290;11.460;2022-08-19T02:12:20;16.73;;;8.80;;
36321;SDS011;23564;48.290;11.460;2022-08-19T02:14:46;14.23;;;8.82;;
36321;SDS011;23564;48.290;11.460;2022-08-19T02:17:12;13.20;;;8.63;;
36321;SDS011;23564;48.290;11.460;2022-08-19T02:19:37;13.32;;;9.93;;
36321;SDS011;23564;48.290;11.460;2022-08-19T02:22:03;11.40;;;8.57;;
36321;SDS011;23564;48.290;11.460;2022-08-19T02:24:29;13.90;;;9.93;;
36321;SDS011;23564;48.290;11.460;2022-08-19T02:26:55;14.98;;;8.90;;
36321;SDS011;23564;48.290;11.460;2022-08-19T02:29:20;15.63;;;9.93;;
36321;SDS011;23564;48.290;11.460;2022-08-19T02:31:46;13.07;;;9.10;;
36321;SDS011;23564;48.290;11.460;2022-08-19T02:34:12;13.00;;;9.20;;
36321;SDS011;23564;48.290;11.460;2022-08-19T02:36:37;13.05;;;8.45;;
36321;SDS011;23564;48.290;11.460;2022-08-19T02:39:03;14.60;;;9.57;;
36321;SDS011;23564;48.290;11.460;2022-08-19T02:41:29;13.13;;;8.65;;
36321;SDS011;23564;48.290;11.460;2022-08-19T02:43:58;14.73;;;10.18;;
36321;SDS011;23564;48.290;11.460;2022-08-19T02:46:26;14.15;;;10.95;;
36321;SDS011;23564;48.290;11.460;2022-08-19T02:48:55;14.80;;;10.15;;
36321;SDS011;23564;48.290;11.460;2022-08-19T02:51:23;14.52;;;10.65;;
36321;SDS011;23564;48.290;11.460;2022-08-19T02:53:51;15.38;;;10.68;;
36321;SDS011;23564;48.290;11.460;2022-08-19T02:56:17;13.88;;;10.32;;
36321;SDS011;23564;48.290;11.460;2022-08-19T02:58:43;14.82;;;10.15;;
36321;SDS011;23564;48.290;11.460;2022-08-19T03:01:09;14.55;;;10.80;;
36321;SDS011;23564;48.290;11.460;2022-08-19T03:03:36;14.65;;;10.90;;
36321;SDS011;23564;48.290;11.460;2022-08-19T03:06:06;14.23;;;9.85;;
36321;SDS011;23564;48.290;11.460;2022-08-19T03:08:38;16.27;;;9.95;;
36321;SDS011;23564;48.290;11.460;2022-08-19T03:11:06;15.60;;;11.77;;
36321;SDS011;23564;48.290;11.460;2022-08-19T03:13:37;14.05;;;10.38;;
36321;SDS011;23564;48.290;11.460;2022-08-19T03:16:04;15.70;;;11.63;;
36321;SDS011;23564;48.290;11.460;2022-08-19T03:18:30;16.40;;;11.18;;
36321;SDS011;23564;48.290;11.460;2022-08-19T03:20:56;16.05;;;10.55;;
36321;SDS011;23564;48.290;11.460;2022-08-19T03:23:23;14.32;;;10.27;;
36321;SDS011;23564;48.290;11.460;2022-08-19T03:25:51;16.48;;;11.48;;
36321;SDS011;23564;48.290;11.460;2022-08-19T03:28:18;13.80;;;10.30;;
36321;SDS011;23564;48.290;11.460;2022-08-19T03:30:55;16.33;;;10.80;;
36321;SDS011;23564;48.290;11.460;2022-08-19T03:33:23;17.30;;;11.40;;
36321;SDS011;23564;48.290;11.460;2022-08-19T03:35:59;15.13;;;10.98;;
36321;SDS011;23564;48.290;11.460;2022-08-19T03:38:25;15.90;;;11.13;;
36321;SDS011;23564;48.290;11.460;2022-08-19T03:40:51;18.10;;;11.70;;
36321;SDS011;23564;48.290;11.460;2022-08-19T03:43:17;17.10;;;12.65;;
36321;SDS011;23564;48.290;11.460;2022-08-19T03:45:43;15.93;;;12.15;;
36321;SDS011;23564;48.290;11.460;2022-08-19T03:48:08;16.70;;;11.38;;
36321;SDS011;23564;48.290;11.460;2022-08-19T03:50:38;14.60;;;11.00;;
36321;SDS011;23564;48.290;11.460;2022-08-19T03:53:04;14.60;;;10.65;;
36321;SDS011;23564;48.290;11.460;2022-08-19T03:55:31;16.42;;;11.48;;
36321;SDS011;23564;48.290;11.460;2022-08-19T03:57:56;16.95;;;11.77;;
36321;SDS011;23564;48.290;11.460;2022-08-19T04:00:22;15.75;;;11.15;;
36321;SDS011;23564;48.290;11.460;2022-08-19T04:02:48;16.05;;;11.50;;
36321;SDS011;23564;48.290;11.460;2022-08-19T04:05:13;17.67;;;12.00;;
36321;SDS011;23564;48.290;11.460;2022-08-19T04:07:39;17.02;;;11.40;;
36321;SDS011;23564;48.290;11.460;2022-08-19T04:10:05;16.05;;;11.38;;
36321;SDS011;23564;48.290;11.460;2022-08-19T04:12:31;16.58;;;12.23;;
36321;SDS011;23564;48.290;11.460;2022-08-19T04:14:57;16.48;;;11.85;;
36321;SDS011;23564;48.290;11.460;2022-08-19T04:17:23;16.52;;;12.30;;
36321;SDS011;23564;48.290;11.460;2022-08-19T04:19:49;16.50;;;11.93;;
36321;SDS011;23564;48.290;11.460;2022-08-19T04:22:14;16.65;;;11.77;;
36321;SDS011;23564;48.290;11.460;2022-08-19T04:24:40;14.80;;;10.98;;
36321;SDS011;23564;48.290;11.460;2022-08-19T04:27:05;15.63;;;11.48;;
36321;SDS011;23564;48.290;11.460;2022-08-19T04:29:31;17.15;;;11.70;;
36321;SDS011;23564;48.290;11.460;2022-08-19T04:31:58;15.25;;;11.85;;
36321;SDS011;23564;48.290;11.460;2022-08-19T04:34:26;14.25;;;11.15;;
36321;SDS011;23564;48.290;11.460;2022-08-19T04:36:54;16.38;;;12.13;;
36321;SDS011;23564;48.290;11.460;2022-08-19T04:39:22;15.85;;;11.93;;
36321;SDS011;23564;48.290;11.460;2022-08-19T04:42:10;17.33;;;11.95;;
36321;SDS011;23564;48.290;11.460;2022-08-19T04:44:54;16.48;;;11.77;;
36321;SDS011;23564;48.290;11.460;2022-08-19T04:47:20;16.60;;;11.90;;
36321;SDS011;23564;48.290;11.460;2022-08-19T04:49:45;16.45;;;11.52;;
36321;SDS011;23564;48.290;11.460;2022-08-19T04:52:11;17.33;;;12.40;;
36321;SDS011;23564;48.290;11.460;2022-08-19T04:54:36;18.40;;;12.48;;
36321;SDS011;23564;48.290;11.460;2022-08-19T04:57:03;18.35;;;12.85;;
36321;SDS011;23564;48.290;11.460;2022-08-19T04:59:31;18.98;;;12.00;;
36321;SDS011;23564;48.290;11.460;2022-08-19T05:01:58;15.82;;;12.02;;
36321;SDS011;23564;48.290;11.460;2022-08-19T05:04:23;16.75;;;12.02;;
36321;SDS011;23564;48.290;11.460;2022-08-19T05:06:49;18.33;;;11.90;;
36321;SDS011;23564;48.290;11.460;2022-08-19T05:09:16;17.85;;;12.55;;
36321;SDS011;23564;48.290;11.460;2022-08-19T05:11:42;19.92;;;12.00;;
36321;SDS011;23564;48.290;11.460;2022-08-19T05:14:09;17.33;;;12.20;;
36321;SDS011;23564;48.290;11.460;2022-08-19T05:16:37;17.05;;;12.35;;
36321;SDS011;23564;48.290;11.460;2022-08-19T05:19:04;17.17;;;12.52;;
36321;SDS011;23564;48.290;11.460;2022-08-19T05:21:48;16.02;;;11.57;;
36321;SDS011;23564;48.290;11.460;2022-08-19T05:24:32;16.02;;;11.05;;
36321;SDS011;23564;48.290;11.460;2022-08-19T05:27:00;15.77;;;11.40;;
36321;SDS011;23564;48.290;11.460;2022-08-19T05:29:27;17.40;;;12.15;;
36321;SDS011;23564;48.290;11.460;2022-08-19T05:31:54;16.52;;;11.32;;
36321;SDS011;23564;48.290;11.460;2022-08-19T05:34:20;19.65;;;13.13;;
36321;SDS011;23564;48.290;11.460;2022-08-19T05:36:49;17.35;;;12.35;;
36321;SDS011;23564;48.290;11.460;2022-08-19T05:39:18;20.83;;;12.77;;
36321;SDS011;23564;48.290;11.460;2022-08-19T05:41:46;17.40;;;11.98;;
36321;SDS011;23564;48.290;11.460;2022-08-19T05:44:33;23.80;;;14.85;;
36321;SDS011;23564;48.290;11.460;2022-08-19T05:47:02;20.90;;;15.07;;
36321;SDS011;23564;48.290;11.460;2022-08-19T05:49:29;21.30;;;14.43;;
36321;SDS011;23564;48.290;11.460;2022-08-19T05:51:56;20.65;;;13.00;;
36321;SDS011;23564;48.290;11.460;2022-08-19T05:54:24;21.90;;;14.88;;
36321;SDS011;23564;48.290;11.460;2022-08-19T05:56:51;22.77;;;13.80;;
36321;SDS011;23564;48.290;11.460;2022-08-19T05:59:18;18.55;;;13.77;;
36321;SDS011;23564;48.290;11.460;2022-08-19T06:01:47;20.27;;;14.30;;
36321;SDS011;23564;48.290;11.460;2022-08-19T06:04:19;25.10;;;16.40;;
36321;SDS011;23564;48.290;11.460;2022-08-19T06:06:46;23.42;;;15.57;;
36321;SDS011;23564;48.290;11.460;2022-08-19T06:09:13;22.83;;;16.25;;
36321;SDS011;23564;48.290;11.460;2022-08-19T06:11:40;21.42;;;14.90;;
36321;SDS011;23564;48.290;11.460;2022-08-19T06:14:19;23.25;;;14.10;;
36321;SDS011;23564;48.290;11.460;2022-08-19T06:16:49;23.80;;;15.50;;
36321;SDS011;23564;48.290;11.460;2022-08-19T06:19:18;21.48;;;14.80;;
36321;SDS011;23564;48.290;11.460;2022-08-19T06:21:46;23.30;;;15.88;;
36321;SDS011;23564;48.290;11.460;2022-08-19T06:24:13;25.23;;;15.82;;
36321;SDS011;23564;48.290;11.460;2022-08-19T06:26:42;22.00;;;15.43;;
36321;SDS011;23564;48.290;11.460;2022-08-19T06:29:09;22.23;;;16.02;;
36321;SDS011;23564;48.290;11.460;2022-08-19T06:31:36;21.42;;;15.13;;
36321;SDS011;23564;48.290;11.460;2022-08-19T06:34:05;27.55;;;16.08;;
36321;SDS011;23564;48.290;11.460;2022-08-19T06:36:34;24.90;;;17.13;;
36321;SDS011;23564;48.290;11.460;2022-08-19T06:39:05;30.10;;;19.00;;
36321;SDS011;23564;48.290;11.460;2022-08-19T06:41:37;25.83;;;17.10;;
36321;SDS011;23564;48.290;11.460;2022-08-19T06:44:04;25.45;;;17.00;;
36321;SDS011;23564;48.290;11.460;2022-08-19T06:46:30;23.27;;;16.45;;
36321;SDS011;23564;48.290;11.460;2022-08-19T06:48:56;25.25;;;15.98;;
36321;SDS011;23564;48.290;11.460;2022-08-19T06:51:23;26.50;;;17.73;;
36321;SDS011;23564;48.290;11.460;2022-08-19T06:53:49;25.02;;;17.50;;
36321;SDS011;23564;48.290;11.460;2022-08-19T06:56:18;27.20;;;17.13;;
36321;SDS011;23564;48.290;11.460;2022-08-19T06:58:46;27.55;;;16.92;;
36321;SDS011;23564;48.290;11.460;2022-08-19T07:01:15;26.05;;;17.40;;
36321;SDS011;23564;48.290;11.460;2022-08-19T07:03:41;24.05;;;15.95;;
36321;SDS011;23564;48.290;11.460;2022-08-19T07:06:08;26.77;;;17.35;;
36321;SDS011;23564;48.290;11.460;2022-08-19T07:08:35;29.33;;;18.83;;
36321;SDS011;23564;48.290;11.460;2022-08-19T07:11:05;25.83;;;18.13;;
36321;SDS011;23564;48.290;11.460;2022-08-19T07:13:32;28.17;;;18.90;;
36321;SDS011;23564;48.290;11.460;2022-08-19T07:16:07;25.88;;;17.98;;
36321;SDS011;23564;48.290;11.460;2022-08-19T07:18:35;32.50;;;20.42;;
36321;SDS011;23564;48.290;11.460;2022-08-19T07:23:40;32.65;;;21.38;;
36321;SDS011;23564;48.290;11.460;2022-08-19T07:26:10;39.17;;;22.25;;
36321;SDS011;23564;48.290;11.460;2022-08-19T07:28:41;39.17;;;23.55;;
36321;SDS011;23564;48.290;11.460;2022-08-19T07:31:10;41.72;;;23.60;;
36321;SDS011;23564;48.290;11.460;2022-08-19T07:33:38;49.85;;;24.10;;
36321;SDS011;23564;48.290;11.460;2022-08-19T07:36:06;47.80;;;27.92;;
36321;SDS011;23564;48.290;11.460;2022-08-19T07:38:33;46.75;;;26.92;;
36321;SDS011;23564;48.290;11.460;2022-08-19T07:40:59;47.03;;;27.95;;
36321;SDS011;23564;48.290;11.460;2022-08-19T07:43:25;53.78;;;30.25;;
36321;SDS011;23564;48.290;11.460;2022-08-19T07:45:52;50.60;;;28.92;;
36321;SDS011;23564;48.290;11.460;2022-08-19T07:48:22;46.50;;;27.48;;
36321;SDS011;23564;48.290;11.460;2022-08-19T07:50:50;51.65;;;28.58;;
36321;SDS011;23564;48.290;11.460;2022-08-19T07:53:23;45.40;;;28.75;;
36321;SDS011;23564;48.290;11.460;2022-08-19T07:55:49;47.08;;;28.50;;
36321;SDS011;23564;48.290;11.460;2022-08-19T07:58:16;40.45;;;23.63;;
36321;SDS011;23564;48.290;11.460;2022-08-19T08:00:45;29.17;;;19.10;;
36321;SDS011;23564;48.290;11.460;2022-08-19T08:03:13;27.75;;;18.45;;
36321;SDS011;23564;48.290;11.460;2022-08-19T08:05:40;28.38;;;19.23;;
36321;SDS011;23564;48.290;11.460;2022-08-19T08:08:25;31.80;;;20.65;;
36321;SDS011;23564;48.290;11.460;2022-08-19T08:11:09;33.70;;;21.45;;
36321;SDS011;23564;48.290;11.460;2022-08-19T08:13:35;30.73;;;20.67;;
36321;SDS011;23564;48.290;11.460;2022-08-19T08:16:02;29.85;;;19.13;;
36321;SDS011;23564;48.290;11.460;2022-08-19T08:18:28;28.35;;;18.33;;
36321;SDS011;23564;48.290;11.460;2022-08-19T08:20:56;29.20;;;17.67;;
36321;SDS011;23564;48.290;11.460;2022-08-19T08:23:23;27.90;;;18.23;;
36321;SDS011;23564;48.290;11.460;2022-08-19T08:25:50;26.48;;;17.73;;
36321;SDS011;23564;48.290;11.460;2022-08-19T08:28:17;24.13;;;15.70;;
36321;SDS011;23564;48.290;11.460;2022-08-19T08:30:44;24.98;;;16.48;;
36321;SDS011;23564;48.290;11.460;2022-08-19T08:33:12;26.00;;;18.40;;
36321;SDS011;23564;48.290;11.460;2022-08-19T08:35:39;29.92;;;20.08;;
36321;SDS011;23564;48.290;11.460;2022-08-19T08:38:10;31.17;;;20.40;;
36321;SDS011;23564;48.290;11.460;2022-08-19T08:43:23;30.88;;;21.05;;
36321;SDS011;23564;48.290;11.460;2022-08-19T08:45:52;31.27;;;20.20;;
36321;SDS011;23564;48.290;11.460;2022-08-19T08:48:30;28.45;;;19.92;;
36321;SDS011;23564;48.290;11.460;2022-08-19T08:51:14;27.73;;;17.52;;
36321;SDS011;23564;48.290;11.460;2022-08-19T08:53:43;27.52;;;18.75;;
36321;SDS011;23564;48.290;11.460;2022-08-19T08:56:11;25.65;;;17.08;;
36321;SDS011;23564;48.290;11.460;2022-08-19T09:01:10;28.58;;;17.73;;
36321;SDS011;23564;48.290;11.460;2022-08-19T09:03:36;24.52;;;17.15;;
36321;SDS011;23564;48.290;11.460;2022-08-19T09:06:23;24.15;;;16.33;;
36321;SDS011;23564;48.290;11.460;2022-08-19T09:09:18;25.73;;;17.65;;
36321;SDS011;23564;48.290;11.460;2022-08-19T09:12:31;23.75;;;16.02;;
36321;SDS011;23564;48.290;11.460;2022-08-19T09:15:02;20.90;;;15.55;;
36321;SDS011;23564;48.290;11.460;2022-08-19T09:17:31;20.67;;;15.43;;
36321;SDS011;23564;48.290;11.460;2022-08-19T09:20:06;25.38;;;15.85;;
36321;SDS011;23564;48.290;11.460;2022-08-19T09:22:42;23.70;;;16.40;;
36321;SDS011;23564;48.290;11.460;2022-08-19T09:25:09;20.45;;;14.93;;
36321;SDS011;23564;48.290;11.460;2022-08-19T09:27:37;22.58;;;15.95;;
36321;SDS011;23564;48.290;11.460;2022-08-19T09:30:05;21.83;;;14.85;;
36321;SDS011;23564;48.290;11.460;2022-08-19T09:32:32;20.20;;;14.57;;
36321;SDS011;23564;48.290;11.460;2022-08-19T09:34:58;20.35;;;13.90;;
36321;SDS011;23564;48.290;11.460;2022-08-19T09:37:25;22.00;;;14.82;;
36321;SDS011;23564;48.290;11.460;2022-08-19T09:39:51;18.50;;;13.15;;
36321;SDS011;23564;48.290;11.460;2022-08-19T09:42:18;17.17;;;13.00;;
36321;SDS011;23564;48.290;11.460;2022-08-19T09:44:44;18.38;;;13.10;;
36321;SDS011;23564;48.290;11.460;2022-08-19T09:47:10;20.10;;;13.77;;
36321;SDS011;23564;48.290;11.460;2022-08-19T09:49:38;16.33;;;12.65;;
36321;SDS011;23564;48.290;11.460;2022-08-19T09:52:04;18.08;;;13.55;;
36321;SDS011;23564;48.290;11.460;2022-08-19T09:54:32;18.25;;;13.93;;
36321;SDS011;23564;48.290;11.460;2022-08-19T09:56:58;17.83;;;12.85;;
36321;SDS011;23564;48.290;11.460;2022-08-19T09:59:27;17.52;;;13.07;;
36321;SDS011;23564;48.290;11.460;2022-08-19T10:01:53;15.80;;;11.88;;
36321;SDS011;23564;48.290;11.460;2022-08-19T10:04:19;14.52;;;11.10;;
36321;SDS011;23564;48.290;11.460;2022-08-19T10:06:46;15.60;;;12.23;;
36321;SDS011;23564;48.290;11.460;2022-08-19T10:09:14;13.90;;;11.48;;
36321;SDS011;23564;48.290;11.460;2022-08-19T10:11:41;17.98;;;13.68;;
36321;SDS011;23564;48.290;11.460;2022-08-19T10:14:08;19.02;;;13.25;;
36321;SDS011;23564;48.290;11.460;2022-08-19T10:16:35;18.35;;;13.32;;
36321;SDS011;23564;48.290;11.460;2022-08-19T10:19:01;18.73;;;14.30;;
36321;SDS011;23564;48.290;11.460;2022-08-19T10:21:29;19.25;;;13.65;;
36321;SDS011;23564;48.290;11.460;2022-08-19T10:23:57;16.40;;;12.18;;
36321;SDS011;23564;48.290;11.460;2022-08-19T10:26:29;17.17;;;12.07;;
36321;SDS011;23564;48.290;11.460;2022-08-19T10:28:58;16.73;;;11.73;;
36321;SDS011;23564;48.290;11.460;2022-08-19T10:31:25;17.08;;;11.60;;
36321;SDS011;23564;48.290;11.460;2022-08-19T10:33:53;15.57;;;11.73;;
36321;SDS011;23564;48.290;11.460;2022-08-19T10:36:23;15.65;;;11.35;;
36321;SDS011;23564;48.290;11.460;2022-08-19T10:38:51;16.55;;;12.10;;
36321;SDS011;23564;48.290;11.460;2022-08-19T10:41:19;15.40;;;11.35;;
36321;SDS011;23564;48.290;11.460;2022-08-19T10:43:49;16.23;;;11.82;;
36321;SDS011;23564;48.290;11.460;2022-08-19T10:46:17;16.83;;;12.45;;
36321;SDS011;23564;48.290;11.460;2022-08-19T10:48:44;19.33;;;12.77;;
36321;SDS011;23564;48.290;11.460;2022-08-19T10:51:09;18.65;;;13.48;;
36321;SDS011;23564;48.290;11.460;2022-08-19T10:53:54;19.77;;;13.82;;
36321;SDS011;23564;48.290;11.460;2022-08-19T10:56:21;21.25;;;13.95;;
36321;SDS011;23564;48.290;11.460;2022-08-19T10:59:05;20.40;;;14.63;;
36321;SDS011;23564;48.290;11.460;2022-08-19T11:01:31;23.33;;;15.70;;
36321;SDS011;23564;48.290;11.460;2022-08-19T11:03:59;21.75;;;16.13;;
36321;SDS011;23564;48.290;11.460;2022-08-19T11:06:26;22.75;;;15.38;;
36321;SDS011;23564;48.290;11.460;2022-08-19T11:08:53;22.48;;;15.40;;
36321;SDS011;23564;48.290;11.460;2022-08-19T11:11:19;20.48;;;14.45;;
36321;SDS011;23564;48.290;11.460;2022-08-19T11:13:46;18.48;;;12.63;;
36321;SDS011;23564;48.290;11.460;2022-08-19T11:16:15;12.70;;;9.00;;
36321;SDS011;23564;48.290;11.460;2022-08-19T11:18:48;9.88;;;7.45;;
36321;SDS011;23564;48.290;11.460;2022-08-19T11:21:20;10.40;;;7.50;;
36321;SDS011;23564;48.290;11.460;2022-08-19T11:23:51;8.40;;;6.45;;
36321;SDS011;23564;48.290;11.460;2022-08-19T11:26:19;10.60;;;6.70;;
36321;SDS011;23564;48.290;11.460;2022-08-19T11:28:45;5.82;;;4.50;;
36321;SDS011;23564;48.290;11.460;2022-08-19T11:31:13;7.00;;;4.70;;
36321;SDS011;23564;48.290;11.460;2022-08-19T11:33:41;5.60;;;4.30;;
36321;SDS011;23564;48.290;11.460;2022-08-19T11:36:06;5.57;;;4.13;;
36321;SDS011;23564;48.290;11.460;2022-08-19T11:38:33;4.18;;;3.22;;
36321;SDS011;23564;48.290;11.460;2022-08-19T11:41:01;4.35;;;1.98;;
36321;SDS011;23564;48.290;11.460;2022-08-19T11:43:28;2.63;;;1.98;;
36321;SDS011;23564;48.290;11.460;2022-08-19T11:45:56;3.13;;;1.77;;
36321;SDS011;23564;48.290;11.460;2022-08-19T11:48:23;1.80;;;1.50;;
36321;SDS011;23564;48.290;11.460;2022-08-19T11:50:50;1.60;;;1.10;;
36321;SDS011;23564;48.290;11.460;2022-08-19T11:53:18;2.92;;;1.70;;
36321;SDS011;23564;48.290;11.460;2022-08-19T11:55:45;2.10;;;1.60;;
36321;SDS011;23564;48.290;11.460;2022-08-19T11:58:13;1.48;;;1.38;;
36321;SDS011;23564;48.290;11.460;2022-08-19T12:00:40;2.33;;;1.13;;
36321;SDS011;23564;48.290;11.460;2022-08-19T12:03:06;3.92;;;1.00;;
36321;SDS011;23564;48.290;11.460;2022-08-19T12:05:33;1.55;;;1.15;;
36321;SDS011;23564;48.290;11.460;2022-08-19T12:08:02;1.35;;;1.08;;
36321;SDS011;23564;48.290;11.460;2022-08-19T12:10:27;1.23;;;1.02;;
36321;SDS011;23564;48.290;11.460;2022-08-19T12:12:53;2.20;;;1.35;;
36321;SDS011;23564;48.290;11.460;2022-08-19T12:15:19;0.80;;;0.80;;
36321;SDS011;23564;48.290;11.460;2022-08-19T12:17:44;1.48;;;0.88;;
36321;SDS011;23564;48.290;11.460;2022-08-19T12:20:10;0.93;;;0.60;;
36321;SDS011;23564;48.290;11.460;2022-08-19T12:22:38;2.45;;;0.60;;
36321;SDS011;23564;48.290;11.460;2022-08-19T12:25:09;0.60;;;0.60;;
36321;SDS011;23564;48.290;11.460;2022-08-19T12:27:36;1.65;;;0.60;;
36321;SDS011;23564;48.290;11.460;2022-08-19T12:30:03;1.73;;;0.93;;
36321;SDS011;23564;48.290;11.460;2022-08-19T12:32:30;1.00;;;0.90;;
36321;SDS011;23564;48.290;11.460;2022-08-19T12:34:55;2.75;;;1.20;;
36321;SDS011;23564;48.290;11.460;2022-08-19T12:37:21;1.20;;;0.80;;
36321;SDS011;23564;48.290;11.460;2022-08-19T12:39:46;2.97;;;1.00;;
36321;SDS011;23564;48.290;11.460;2022-08-19T12:42:13;1.30;;;1.10;;
36321;SDS011;23564;48.290;11.460;2022-08-19T12:44:40;2.47;;;1.70;;
36321;SDS011;23564;48.290;11.460;2022-08-19T12:47:07;1.95;;;1.48;;
36321;SDS011;23564;48.290;11.460;2022-08-19T12:49:35;2.13;;;1.83;;
36321;SDS011;23564;48.290;11.460;2022-08-19T12:52:03;2.78;;;2.00;;
36321;SDS011;23564;48.290;11.460;2022-08-19T12:54:30;2.85;;;2.13;;
36321;SDS011;23564;48.290;11.460;2022-08-19T12:56:57;3.45;;;2.70;;
36321;SDS011;23564;48.290;11.460;2022-08-19T12:59:23;3.90;;;2.75;;
36321;SDS011;23564;48.290;11.460;2022-08-19T13:01:48;4.70;;;3.22;;
36321;SDS011;23564;48.290;11.460;2022-08-19T13:04:14;4.22;;;2.83;;
36321;SDS011;23564;48.290;11.460;2022-08-19T13:06:41;4.35;;;3.47;;
36321;SDS011;23564;48.290;11.460;2022-08-19T13:09:07;5.43;;;3.20;;
36321;SDS011;23564;48.290;11.460;2022-08-19T13:11:32;3.63;;;2.83;;
36321;SDS011;23564;48.290;11.460;2022-08-19T13:13:59;4.35;;;3.40;;
36321;SDS011;23564;48.290;11.460;2022-08-19T13:16:26;3.90;;;2.97;;
36321;SDS011;23564;48.290;11.460;2022-08-19T13:18:53;5.50;;;3.92;;
36321;SDS011;23564;48.290;11.460;2022-08-19T13:21:20;3.50;;;2.90;;
36321;SDS011;23564;48.290;11.460;2022-08-19T13:23:48;4.15;;;2.90;;
36321;SDS011;23564;48.290;11.460;2022-08-19T13:26:14;4.93;;;3.10;;
36321;SDS011;23564;48.290;11.460;2022-08-19T13:28:41;4.15;;;3.17;;
36321;SDS011;23564;48.290;11.460;2022-08-19T13:31:27;3.80;;;3.10;;
36321;SDS011;23564;48.290;11.460;2022-08-19T13:34:12;4.10;;;3.30;;
36321;SDS011;23564;48.290;11.460;2022-08-19T13:36:39;4.60;;;2.78;;
36321;SDS011;23564;48.290;11.460;2022-08-19T13:39:05;3.22;;;2.47;;
36321;SDS011;23564;48.290;11.460;2022-08-19T13:41:33;3.40;;;2.60;;
36321;SDS011;23564;48.290;11.460;2022-08-19T13:44:00;3.88;;;2.88;;
36321;SDS011;23564;48.290;11.460;2022-08-19T13:46:26;4.13;;;2.92;;
36321;SDS011;23564;48.290;11.460;2022-08-19T13:48:54;6.45;;;2.70;;
36321;SDS011;23564;48.290;11.460;2022-08-19T13:51:21;4.78;;;2.63;;
36321;SDS011;23564;48.290;11.460;2022-08-19T13:53:47;3.78;;;2.55;;
36321;SDS011;23564;48.290;11.460;2022-08-19T13:56:13;3.08;;;2.28;;
36321;SDS011;23564;48.290;11.460;2022-08-19T13:58:41;2.95;;;2.17;;
36321;SDS011;23564;48.290;11.460;2022-08-19T14:01:06;2.30;;;2.05;;
36321;SDS011;23564;48.290;11.460;2022-08-19T14:03:33;3.47;;;2.60;;
36321;SDS011;23564;48.290;11.460;2022-08-19T14:05:59;4.53;;;2.40;;
36321;SDS011;23564;48.290;11.460;2022-08-19T14:08:27;3.30;;;2.47;;
36321;SDS011;23564;48.290;11.460;2022-08-19T14:10:54;3.25;;;2.38;;
36321;SDS011;23564;48.290;11.460;2022-08-19T14:13:21;3.72;;;2.60;;
36321;SDS011;23564;48.290;11.460;2022-08-19T14:15:47;2.60;;;2.30;;
36321;SDS011;23564;48.290;11.460;2022-08-19T14:18:14;2.95;;;2.30;;
36321;SDS011;23564;48.290;11.460;2022-08-19T14:20:40;4.63;;;2.78;;
36321;SDS011;23564;48.290;11.460;2022-08-19T14:23:06;3.70;;;2.97;;
36321;SDS011;23564;48.290;11.460;2022-08-19T14:25:32;3.97;;;2.67;;
36321;SDS011;23564;48.290;11.460;2022-08-19T14:27:59;4.53;;;3.03;;
36321;SDS011;23564;48.290;11.460;2022-08-19T14:30:35;4.30;;;3.40;;
36321;SDS011;23564;48.290;11.460;2022-08-19T14:33:02;5.82;;;3.65;;